Time;durP1;ratioP1;P1;durP2;ratioP2;P2;SDS_P1;SDS_P2;PMS_P1;PMS_P2;Temp;Humidity;BMP_temperature;BMP_pressure;BME280_temperature;BME280_humidity;BME280_pressure;Samples;Min_cycle;Max_cycle;Signal;HPM_P1;HPM_P2
2023/07/22 00:02:00;;;;;;;1.90;1.50;;;19.30;99.90;;;;;;7386953;19;20147;-72
2023/07/22 00:04:27;;;;;;;3.72;1.73;;;19.40;99.90;;;;;;7390164;19;20154;-71
2023/07/22 00:06:52;;;;;;;2.42;1.77;;;19.40;99.90;;;;;;7385893;19;20138;-71
2023/07/22 00:09:19;;;;;;;2.10;1.48;;;19.40;99.90;;;;;;7387810;19;20173;-72
2023/07/22 00:11:44;;;;;;;3.05;1.30;;;19.40;99.90;;;;;;7386875;19;20166;-72
2023/07/22 00:14:10;;;;;;;2.83;1.40;;;19.40;99.90;;;;;;7390714;19;20642;-72
2023/07/22 00:16:36;;;;;;;2.25;1.45;;;19.00;99.90;;;;;;7387074;19;20142;-71
2023/07/22 00:19:01;;;;;;;2.60;1.50;;;18.80;99.90;;;;;;7388567;19;20319;-70
2023/07/22 00:21:29;;;;;;;1.80;1.63;;;18.80;99.90;;;;;;7384410;19;20139;-71
2023/07/22 00:23:54;;;;;;;1.67;1.20;;;18.70;99.90;;;;;;7387240;19;20147;-71
2023/07/22 00:26:20;;;;;;;2.35;1.50;;;18.70;99.90;;;;;;7387381;19;20210;-72
2023/07/22 00:28:46;;;;;;;2.72;1.45;;;18.80;99.90;;;;;;7388305;19;20165;-71
2023/07/22 00:31:12;;;;;;;3.00;1.50;;;18.70;99.90;;;;;;7388561;19;20448;-71
2023/07/22 00:33:38;;;;;;;2.97;1.48;;;18.40;99.90;;;;;;7389269;19;20153;-71
2023/07/22 00:36:04;;;;;;;2.00;1.52;;;18.30;99.90;;;;;;7385856;19;20158;-71
2023/07/22 00:38:30;;;;;;;3.53;1.88;;;18.30;99.90;;;;;;7386781;19;20142;-71
2023/07/22 00:40:56;;;;;;;3.47;1.55;;;18.30;99.90;;;;;;7385015;19;20237;-72
2023/07/22 00:43:21;;;;;;;2.95;1.30;;;18.50;99.90;;;;;;7387494;19;20595;-72
2023/07/22 00:45:47;;;;;;;1.70;1.38;;;18.80;99.90;;;;;;7388157;19;20138;-72
2023/07/22 00:48:14;;;;;;;3.95;1.55;;;18.60;99.90;;;;;;7384258;19;20142;-72
2023/07/22 00:50:40;;;;;;;3.42;1.60;;;18.30;99.90;;;;;;7388107;19;20147;-72
2023/07/22 00:53:06;;;;;;;2.97;2.28;;;18.10;99.90;;;;;;7389115;19;20488;-72
2023/07/22 00:55:34;;;;;;;3.28;2.35;;;18.30;99.90;;;;;;7386669;19;20131;-72
2023/07/22 00:58:00;;;;;;;1.90;1.70;;;18.60;99.90;;;;;;7388277;19;20615;-72
2023/07/22 01:00:25;;;;;;;2.38;1.60;;;18.80;99.90;;;;;;7385355;19;20134;-72
2023/07/22 01:02:51;;;;;;;1.63;1.33;;;18.90;99.90;;;;;;7388048;19;20229;-72
2023/07/22 01:05:17;;;;;;;2.28;1.50;;;19.00;99.90;;;;;;7387061;19;20524;-72
2023/07/22 01:07:44;;;;;;;3.75;1.60;;;18.90;99.90;;;;;;7385079;19;20199;-72
2023/07/22 01:10:09;;;;;;;2.88;1.73;;;19.00;99.90;;;;;;7386068;19;20145;-72
2023/07/22 01:12:36;;;;;;;2.42;1.38;;;19.00;99.90;;;;;;7387106;19;20143;-72
2023/07/22 01:15:03;;;;;;;2.30;1.55;;;19.00;99.90;;;;;;7381097;19;20143;-71
2023/07/22 01:17:29;;;;;;;2.28;1.55;;;18.90;99.90;;;;;;7384887;19;20143;-71
2023/07/22 01:19:56;;;;;;;2.47;1.50;;;19.00;99.90;;;;;;7379066;19;20147;-71
2023/07/22 01:22:22;;;;;;;1.92;1.30;;;18.90;99.90;;;;;;7387669;19;20499;-71
2023/07/22 01:24:48;;;;;;;4.50;1.60;;;18.90;99.90;;;;;;7385038;19;20150;-71
2023/07/22 01:27:14;;;;;;;2.67;1.50;;;18.90;99.90;;;;;;7383331;19;20141;-71
2023/07/22 01:29:40;;;;;;;2.05;1.20;;;18.90;99.90;;;;;;7387119;19;20152;-71
2023/07/22 01:32:06;;;;;;;1.60;1.42;;;18.80;99.90;;;;;;7387327;19;20603;-71
2023/07/22 01:34:32;;;;;;;2.88;1.42;;;18.90;99.90;;;;;;7383486;19;20864;-71
2023/07/22 01:36:59;;;;;;;1.90;1.30;;;18.90;99.90;;;;;;7387796;19;20143;-71
2023/07/22 01:39:25;;;;;;;2.38;1.60;;;18.80;99.90;;;;;;7385378;19;20580;-72
2023/07/22 01:41:51;;;;;;;2.58;1.60;;;18.80;99.90;;;;;;7384175;19;20157;-71
2023/07/22 01:44:16;;;;;;;2.03;1.42;;;18.70;99.90;;;;;;7386875;19;20468;-72
2023/07/22 01:46:42;;;;;;;1.88;1.48;;;18.60;99.90;;;;;;7384229;19;20151;-71
2023/07/22 01:49:12;;;;;;;3.10;1.80;;;18.70;99.90;;;;;;7387101;19;20492;-71
2023/07/22 01:51:40;;;;;;;1.40;1.10;;;18.60;99.90;;;;;;7386225;19;20210;-71
2023/07/22 01:54:06;;;;;;;3.25;1.30;;;18.70;99.90;;;;;;7384479;19;20146;-71
2023/07/22 01:56:32;;;;;;;1.38;1.27;;;18.70;99.90;;;;;;7384475;19;20185;-71
2023/07/22 01:58:58;;;;;;;1.88;1.60;;;18.60;99.90;;;;;;7383468;19;20477;-71
2023/07/22 02:01:24;;;;;;;1.65;1.25;;;18.70;99.90;;;;;;7385583;19;20147;-72
2023/07/22 02:03:50;;;;;;;2.28;1.45;;;18.70;99.90;;;;;;7386201;19;20154;-71
2023/07/22 02:06:15;;;;;;;2.17;1.30;;;18.60;99.90;;;;;;7385197;19;20134;-71
2023/07/22 02:08:41;;;;;;;1.92;1.45;;;18.70;99.90;;;;;;7381437;19;20142;-70
2023/07/22 02:11:11;;;;;;;2.65;1.60;;;18.60;99.90;;;;;;7385078;19;20559;-71
2023/07/22 02:13:36;;;;;;;1.90;1.38;;;18.60;99.90;;;;;;7381933;19;20584;-71
2023/07/22 02:16:03;;;;;;;2.25;1.38;;;18.60;99.90;;;;;;7384874;19;20142;-72
2023/07/22 02:18:29;;;;;;;1.90;1.48;;;18.50;99.90;;;;;;7382978;19;20155;-71
2023/07/22 02:20:55;;;;;;;3.05;1.38;;;18.50;99.90;;;;;;7385535;19;20161;-71
2023/07/22 02:23:21;;;;;;;2.03;1.40;;;18.60;99.90;;;;;;7385161;19;20169;-71
2023/07/22 02:25:51;;;;;;;2.63;1.80;;;18.50;99.90;;;;;;7385809;19;20483;-71
2023/07/22 02:28:21;;;;;;;2.25;1.52;;;18.30;99.90;;;;;;7382961;19;20150;-71
2023/07/22 02:30:47;;;;;;;2.83;1.98;;;18.00;99.90;;;;;;7383341;19;20139;-71
2023/07/22 02:33:13;;;;;;;2.05;1.48;;;17.80;99.90;;;;;;7386856;19;20127;-71
2023/07/22 02:35:41;;;;;;;3.45;1.70;;;17.90;99.90;;;;;;7383766;19;20139;-71
2023/07/22 02:38:07;;;;;;;1.70;1.42;;;17.90;99.90;;;;;;7383570;19;20158;-71
2023/07/22 02:40:37;;;;;;;2.13;1.30;;;17.90;99.90;;;;;;7378318;19;20154;-71
2023/07/22 02:43:03;;;;;;;2.35;1.90;;;17.90;99.90;;;;;;7383879;19;20544;-71
2023/07/22 02:45:29;;;;;;;1.77;1.58;;;18.00;99.90;;;;;;7388216;19;20142;-71
2023/07/22 02:47:55;;;;;;;2.67;1.70;;;18.20;99.90;;;;;;7387458;19;20472;-70
2023/07/22 02:50:21;;;;;;;1.58;1.20;;;18.20;99.90;;;;;;7391542;19;20234;-71
2023/07/22 02:52:47;;;;;;;1.63;1.52;;;18.30;99.90;;;;;;7390213;19;20608;-71
2023/07/22 02:55:15;;;;;;;2.20;1.30;;;18.30;99.90;;;;;;7391640;19;20206;-72
2023/07/22 02:57:41;;;;;;;1.85;1.48;;;18.40;99.90;;;;;;7392007;19;20153;-72
2023/07/22 03:00:08;;;;;;;2.78;1.52;;;18.30;99.90;;;;;;7389455;19;20134;-71
2023/07/22 03:02:35;;;;;;;2.55;1.77;;;18.00;99.90;;;;;;7389929;19;20142;-72
2023/07/22 03:05:02;;;;;;;2.20;1.50;;;18.20;99.90;;;;;;7389873;19;20138;-72
2023/07/22 03:07:28;;;;;;;2.75;1.50;;;18.00;99.90;;;;;;7391103;19;20135;-71
2023/07/22 03:09:54;;;;;;;2.85;1.80;;;18.20;99.90;;;;;;7390407;19;20142;-71
2023/07/22 03:12:19;;;;;;;3.08;1.33;;;18.20;99.90;;;;;;7389324;19;20567;-71
2023/07/22 03:14:45;;;;;;;1.38;1.27;;;18.20;99.90;;;;;;7389302;19;20138;-73
2023/07/22 03:17:14;;;;;;;2.15;1.60;;;18.10;99.90;;;;;;7389760;19;20131;-72
2023/07/22 03:19:40;;;;;;;3.50;1.58;;;18.10;99.90;;;;;;7386739;19;20135;-71
2023/07/22 03:22:06;;;;;;;2.03;1.33;;;18.10;99.90;;;;;;7391799;19;20151;-71
2023/07/22 03:24:31;;;;;;;4.68;1.45;;;18.20;99.90;;;;;;7388187;19;20274;-71
2023/07/22 03:26:57;;;;;;;1.27;1.15;;;18.20;99.90;;;;;;7388567;19;20222;-71
2023/07/22 03:29:24;;;;;;;3.05;1.70;;;18.20;99.90;;;;;;7390043;19;20591;-71
2023/07/22 03:31:50;;;;;;;2.80;1.70;;;18.10;99.90;;;;;;7391334;19;20131;-71
2023/07/22 03:34:16;;;;;;;1.90;1.23;;;18.10;99.90;;;;;;7387979;19;20134;-73
2023/07/22 03:36:41;;;;;;;1.90;1.40;;;18.20;99.90;;;;;;7388127;19;20455;-71
2023/07/22 03:39:08;;;;;;;1.75;1.50;;;18.20;99.90;;;;;;7390357;19;20134;-72
2023/07/22 03:41:33;;;;;;;2.10;1.33;;;18.20;99.90;;;;;;7388311;19;20135;-70
2023/07/22 03:43:59;;;;;;;2.75;1.40;;;18.10;99.90;;;;;;7388793;19;20133;-71
2023/07/22 03:46:25;;;;;;;2.03;1.40;;;18.20;99.90;;;;;;7386332;19;20158;-72
2023/07/22 03:48:51;;;;;;;2.65;1.67;;;18.20;99.90;;;;;;7389010;19;20139;-73
2023/07/22 03:51:17;;;;;;;2.05;1.67;;;18.10;99.90;;;;;;7390426;19;20153;-72
2023/07/22 03:53:43;;;;;;;2.00;1.65;;;18.20;99.90;;;;;;7388191;19;20159;-73
2023/07/22 03:56:08;;;;;;;3.38;1.92;;;18.10;99.90;;;;;;7389205;19;20130;-72
2023/07/22 03:58:34;;;;;;;2.40;1.55;;;18.20;99.90;;;;;;7386129;19;20594;-73
2023/07/22 04:01:00;;;;;;;3.55;1.80;;;18.20;99.90;;;;;;7390045;19;20134;-72
2023/07/22 04:03:26;;;;;;;2.60;1.50;;;18.20;99.90;;;;;;7386685;19;20161;-72
2023/07/22 04:05:58;;;;;;;2.97;1.50;;;17.90;99.90;;;;;;7390213;19;20276;-71
2023/07/22 04:08:23;;;;;;;2.45;1.50;;;17.50;99.90;;;;;;7386084;19;20142;-72
2023/07/22 04:10:53;;;;;;;3.15;1.60;;;17.60;99.90;;;;;;7389724;19;20130;-72
2023/07/22 04:13:19;;;;;;;1.88;1.55;;;17.70;99.90;;;;;;7386609;19;20226;-72
2023/07/22 04:15:45;;;;;;;1.98;1.30;;;17.90;99.90;;;;;;7389504;19;20138;-72
2023/07/22 04:18:10;;;;;;;2.92;1.65;;;18.00;99.90;;;;;;7388878;19;20153;-71
2023/07/22 04:20:36;;;;;;;3.38;1.60;;;18.10;99.90;;;;;;7389546;19;20134;-71
2023/07/22 04:23:02;;;;;;;2.22;1.67;;;18.20;99.90;;;;;;7385682;19;20135;-72
2023/07/22 04:25:27;;;;;;;3.58;2.20;;;18.20;99.90;;;;;;7387713;19;20618;-71
2023/07/22 04:27:53;;;;;;;2.40;1.70;;;18.30;99.90;;;;;;7384767;19;20152;-71
2023/07/22 04:30:20;;;;;;;4.18;2.00;;;18.20;99.90;;;;;;7386662;19;20524;-72
2023/07/22 04:32:49;;;;;;;2.13;1.63;;;18.10;99.90;;;;;;7387645;19;20662;-72
2023/07/22 04:35:17;;;;;;;2.80;1.70;;;18.20;99.90;;;;;;7387798;19;20126;-72
2023/07/22 04:37:44;;;;;;;1.98;1.63;;;18.20;99.90;;;;;;7384728;19;20957;-71
2023/07/22 04:40:16;;;;;;;2.85;1.73;;;18.50;99.90;;;;;;7387266;19;20141;-72
2023/07/22 04:42:41;;;;;;;3.35;1.58;;;18.20;99.90;;;;;;7389060;19;20709;-71
2023/07/22 04:45:11;;;;;;;2.33;1.70;;;18.10;99.90;;;;;;7387398;19;20142;-71
2023/07/22 04:47:44;;;;;;;2.10;1.27;;;18.10;99.90;;;;;;7384734;19;20186;-71
2023/07/22 04:50:10;;;;;;;1.75;1.52;;;18.10;99.90;;;;;;7388200;19;20174;-72
2023/07/22 04:52:36;;;;;;;2.08;1.88;;;17.60;99.90;;;;;;7388652;19;20138;-71
2023/07/22 04:55:08;;;;;;;3.45;1.73;;;17.20;99.90;;;;;;7388589;19;20146;-71
2023/07/22 04:57:42;;;;;;;2.25;1.80;;;17.20;99.90;;;;;;7385053;19;20658;-72
2023/07/22 05:00:19;;;;;;;2.78;1.77;;;17.20;99.90;;;;;;7386680;19;20134;-71
2023/07/22 05:02:46;;;;;;;4.03;1.95;;;16.90;99.90;;;;;;7386681;19;20156;-71
2023/07/22 05:05:13;;;;;;;2.65;1.70;;;17.40;99.90;;;;;;7388192;19;20135;-71
2023/07/22 05:07:38;;;;;;;2.70;1.80;;;17.80;99.90;;;;;;7386094;19;20134;-71
2023/07/22 05:10:07;;;;;;;1.70;1.48;;;18.10;99.90;;;;;;7386416;19;21221;-73
2023/07/22 05:12:32;;;;;;;2.05;1.67;;;17.70;99.90;;;;;;7387392;19;20155;-71
2023/07/22 05:14:58;;;;;;;3.00;1.95;;;17.60;99.90;;;;;;7386479;19;20134;-71
2023/07/22 05:17:25;;;;;;;2.47;1.75;;;17.80;99.90;;;;;;7386905;19;20242;-72
2023/07/22 05:19:51;;;;;;;1.95;1.40;;;18.10;99.90;;;;;;7387012;19;20155;-71
2023/07/22 05:22:16;;;;;;;2.88;1.88;;;18.20;99.90;;;;;;7389769;19;20161;-71
2023/07/22 05:24:42;;;;;;;3.75;1.80;;;18.30;99.90;;;;;;7385048;19;20170;-72
2023/07/22 05:27:08;;;;;;;2.17;1.58;;;18.30;99.90;;;;;;7384918;19;20150;-71
2023/07/22 05:29:34;;;;;;;2.80;1.67;;;18.40;99.90;;;;;;7385815;19;20142;-72
2023/07/22 05:32:00;;;;;;;4.32;1.67;;;18.50;99.90;;;;;;7387644;19;20134;-73
2023/07/22 05:34:25;;;;;;;2.17;1.80;;;18.50;99.90;;;;;;7385650;19;20166;-71
2023/07/22 05:36:51;;;;;;;2.15;1.55;;;18.50;99.90;;;;;;7385642;19;20150;-72
2023/07/22 05:39:19;;;;;;;1.90;1.60;;;18.60;99.90;;;;;;7386549;19;20138;-72
2023/07/22 05:41:45;;;;;;;2.47;2.15;;;18.60;99.90;;;;;;7387684;19;20672;-72
2023/07/22 05:44:11;;;;;;;2.67;1.60;;;18.70;99.90;;;;;;7384853;19;20206;-71
2023/07/22 05:46:38;;;;;;;1.85;1.52;;;18.70;99.90;;;;;;7384476;19;20464;-72
2023/07/22 05:49:04;;;;;;;2.53;1.77;;;18.70;99.90;;;;;;7385598;19;20682;-71
2023/07/22 05:51:30;;;;;;;2.67;1.60;;;18.50;99.90;;;;;;7385558;19;20166;-71
2023/07/22 05:53:55;;;;;;;3.38;1.77;;;18.50;99.90;;;;;;7383598;19;20147;-72
2023/07/22 05:56:21;;;;;;;2.55;1.80;;;18.60;99.90;;;;;;7384628;19;20263;-72
2023/07/22 05:58:47;;;;;;;4.47;1.88;;;18.60;99.90;;;;;;7384132;19;20138;-71
2023/07/22 06:01:14;;;;;;;2.25;1.70;;;18.60;99.90;;;;;;7384411;19;20138;-73
2023/07/22 06:03:41;;;;;;;2.63;1.90;;;18.60;99.90;;;;;;7385469;19;20591;-71
2023/07/22 06:06:06;;;;;;;3.33;2.00;;;18.80;99.90;;;;;;7385183;19;20130;-72
2023/07/22 06:08:32;;;;;;;2.28;1.70;;;18.90;99.90;;;;;;7382632;19;20194;-71
2023/07/22 06:10:58;;;;;;;3.85;1.67;;;18.80;99.90;;;;;;7383986;19;20206;-71
2023/07/22 06:13:23;;;;;;;2.45;1.70;;;18.70;99.90;;;;;;7384367;19;20138;-71
2023/07/22 06:15:49;;;;;;;2.35;1.45;;;18.80;99.90;;;;;;7385272;19;20130;-71
2023/07/22 06:18:15;;;;;;;3.35;1.38;;;18.90;99.90;;;;;;7381609;19;20201;-71
2023/07/22 06:20:41;;;;;;;1.92;1.73;;;19.00;99.90;;;;;;7386262;19;21360;-71
2023/07/22 06:23:06;;;;;;;4.32;1.70;;;19.10;99.90;;;;;;7390764;19;20134;-72
2023/07/22 06:25:32;;;;;;;2.33;1.90;;;19.40;99.90;;;;;;7391660;19;20134;-72
2023/07/22 06:27:58;;;;;;;2.70;1.70;;;20.90;99.90;;;;;;7388428;19;20131;-72
2023/07/22 06:30:23;;;;;;;3.97;2.05;;;23.30;99.90;;;;;;7391891;19;20156;-72
2023/07/22 06:32:49;;;;;;;1.75;1.60;;;25.20;99.90;;;;;;7387815;19;20211;-71
2023/07/22 06:35:15;;;;;;;2.03;1.67;;;26.70;99.90;;;;;;7389018;19;20158;-71
2023/07/22 06:37:40;;;;;;;2.92;1.55;;;27.30;99.90;;;;;;7389354;19;20591;-71
2023/07/22 06:40:07;;;;;;;2.65;2.00;;;27.70;99.50;;;;;;7388014;19;20142;-71
2023/07/22 06:42:33;;;;;;;1.80;1.60;;;27.60;99.30;;;;;;7389717;19;20127;-70
2023/07/22 06:44:59;;;;;;;2.75;1.70;;;28.50;97.90;;;;;;7390757;19;20157;-71
2023/07/22 06:47:24;;;;;;;2.10;1.75;;;29.10;96.40;;;;;;7390516;19;20151;-70
2023/07/22 06:49:50;;;;;;;2.63;2.10;;;29.10;95.50;;;;;;7393032;19;20147;-70
2023/07/22 06:52:17;;;;;;;2.97;1.70;;;28.00;96.40;;;;;;7390013;19;20137;-69
2023/07/22 06:54:42;;;;;;;3.30;1.88;;;27.80;97.00;;;;;;7392561;19;20437;-70
2023/07/22 06:57:08;;;;;;;5.53;1.83;;;28.30;96.80;;;;;;7391238;19;20135;-70
2023/07/22 06:59:34;;;;;;;4.45;2.25;;;29.80;95.60;;;;;;7392024;19;20134;-76
2023/07/22 07:02:01;;;;;;;4.03;1.83;;;30.20;93.80;;;;;;7390496;19;20146;-75
2023/07/22 07:04:35;;;;;;;2.25;1.63;;;29.20;94.00;;;;;;7392099;19;20142;-76
2023/07/22 07:07:01;;;;;;;2.28;2.00;;;28.40;94.90;;;;;;7390797;19;20439;-75
2023/07/22 07:09:26;;;;;;;2.80;2.13;;;27.90;95.50;;;;;;7392234;19;20131;-75
2023/07/22 07:11:52;;;;;;;1.85;1.55;;;26.80;97.00;;;;;;7392399;19;20135;-76
2023/07/22 07:14:18;;;;;;;2.53;2.08;;;26.50;97.90;;;;;;7391559;19;20150;-76
2023/07/22 07:16:44;;;;;;;1.83;1.42;;;26.20;98.40;;;;;;7391206;19;20219;-75
2023/07/22 07:19:10;;;;;;;3.38;2.13;;;26.00;99.00;;;;;;7392846;19;20175;-75
2023/07/22 07:21:36;;;;;;;2.13;1.70;;;26.00;98.90;;;;;;7392074;19;20142;-75
2023/07/22 07:24:02;;;;;;;2.35;1.50;;;25.50;99.70;;;;;;7391824;19;20676;-75
2023/07/22 07:26:27;;;;;;;1.90;1.40;;;25.50;99.90;;;;;;7390064;19;20493;-75
2023/07/22 07:28:53;;;;;;;3.78;1.90;;;25.40;99.90;;;;;;7389015;19;20131;-76
2023/07/22 07:31:20;;;;;;;2.05;1.85;;;25.60;99.90;;;;;;7389402;19;20153;-76
2023/07/22 07:33:45;;;;;;;3.47;2.40;;;26.20;99.90;;;;;;7392361;19;20137;-76
2023/07/22 07:36:11;;;;;;;4.03;2.53;;;26.30;99.50;;;;;;7386917;19;20191;-74
2023/07/22 07:38:37;;;;;;;3.35;2.20;;;26.20;99.50;;;;;;7388690;19;20156;-75
2023/07/22 07:41:08;;;;;;;2.55;1.90;;;26.30;99.50;;;;;;7388010;19;20206;-75
2023/07/22 07:43:42;;;;;;;2.65;1.95;;;26.10;99.90;;;;;;7386228;19;20135;-74
2023/07/22 07:46:21;;;;;;;4.25;2.13;;;26.20;99.30;;;;;;7387367;19;20236;-76
2023/07/22 07:48:50;;;;;;;2.60;1.42;;;25.90;99.70;;;;;;7388385;19;20496;-77
2023/07/22 07:51:17;;;;;;;2.80;1.98;;;25.40;99.90;;;;;;7389897;19;20146;-75
2023/07/22 07:53:44;;;;;;;2.65;1.67;;;25.20;99.90;;;;;;7387606;19;20134;-74
2023/07/22 07:56:11;;;;;;;2.03;1.52;;;25.40;99.90;;;;;;7389468;19;20132;-74
2023/07/22 07:58:37;;;;;;;1.63;1.52;;;25.50;99.90;;;;;;7387496;19;20174;-74
2023/07/22 08:01:03;;;;;;;3.10;2.30;;;25.80;99.90;;;;;;7384318;19;20458;-75
2023/07/22 08:03:30;;;;;;;3.88;2.60;;;26.10;99.90;;;;;;7388560;19;20130;-75
2023/07/22 08:05:57;;;;;;;2.95;2.28;;;26.50;99.80;;;;;;7389518;19;20164;-78
2023/07/22 08:08:26;;;;;;;2.25;1.80;;;26.80;99.00;;;;;;7385198;19;20575;-76
2023/07/22 08:10:58;;;;;;;2.97;1.60;;;26.80;98.50;;;;;;7390030;19;20201;-76
2023/07/22 08:13:24;;;;;;;2.05;1.00;;;27.00;98.20;;;;;;7385858;19;20208;-75
2023/07/22 08:15:50;;;;;;;6.93;1.98;;;27.30;96.00;;;;;;7389675;19;20126;-75
2023/07/22 08:18:15;;;;;;;2.20;1.65;;;27.50;95.70;;;;;;7390886;19;20190;-75
2023/07/22 08:20:41;;;;;;;5.32;1.38;;;27.90;95.40;;;;;;7387642;19;20179;-78
2023/07/22 08:23:07;;;;;;;3.42;1.90;;;28.00;94.40;;;;;;7388734;19;20171;-76
2023/07/22 08:25:32;;;;;;;1.88;1.10;;;28.00;93.50;;;;;;7388350;19;20131;-78
2023/07/22 08:27:58;;;;;;;4.80;1.55;;;27.70;92.60;;;;;;7383672;19;20158;-77
2023/07/22 08:30:25;;;;;;;1.40;1.17;;;28.00;92.10;;;;;;7387723;19;20127;-76
2023/07/22 08:32:51;;;;;;;1.85;1.10;;;28.10;91.70;;;;;;7386485;19;20491;-76
2023/07/22 08:35:17;;;;;;;1.10;1.00;;;28.00;91.10;;;;;;7388341;19;20146;-75
2023/07/22 08:37:43;;;;;;;1.15;1.02;;;27.70;91.60;;;;;;7385168;19;20513;-76
2023/07/22 08:40:10;;;;;;;2.75;1.27;;;27.70;90.80;;;;;;7387527;19;20138;-76
2023/07/22 08:42:37;;;;;;;3.92;2.25;;;27.70;90.80;;;;;;7384471;19;20145;-75
2023/07/22 08:45:05;;;;;;;1.95;1.33;;;28.00;91.20;;;;;;7390696;19;20134;-75
2023/07/22 08:47:33;;;;;;;0.90;0.90;;;28.50;91.20;;;;;;7387180;19;20169;-75
2023/07/22 08:50:03;;;;;;;1.27;1.17;;;28.80;88.50;;;;;;7390607;19;20135;-76
2023/07/22 08:52:29;;;;;;;1.58;1.02;;;28.30;87.80;;;;;;7386324;19;20146;-75
2023/07/22 08:54:55;;;;;;;2.00;1.05;;;28.40;85.90;;;;;;7389130;19;20151;-75
2023/07/22 08:57:21;;;;;;;1.67;1.17;;;28.40;84.10;;;;;;7388631;19;20161;-74
2023/07/22 08:59:48;;;;;;;1.20;1.00;;;27.90;84.10;;;;;;7389276;19;20238;-74
2023/07/22 09:02:15;;;;;;;2.55;1.17;;;28.00;82.50;;;;;;7386846;19;21455;-76
2023/07/22 09:04:42;;;;;;;1.45;1.15;;;27.90;82.40;;;;;;7389270;19;20150;-75
2023/07/22 09:07:09;;;;;;;1.88;0.85;;;27.50;82.70;;;;;;7385298;19;20139;-75
2023/07/22 09:09:35;;;;;;;1.15;1.00;;;26.70;83.60;;;;;;7387470;19;20151;-75
2023/07/22 09:12:02;;;;;;;0.82;0.73;;;26.30;83.60;;;;;;7387195;19;20611;-74
2023/07/22 09:14:29;;;;;;;1.55;1.10;;;25.90;84.00;;;;;;7388472;19;20209;-75
2023/07/22 09:16:55;;;;;;;1.00;0.90;;;25.50;86.50;;;;;;7386224;19;20162;-76
2023/07/22 09:19:21;;;;;;;1.20;1.00;;;25.20;86.80;;;;;;7386316;19;20198;-75
2023/07/22 09:21:47;;;;;;;3.28;1.20;;;25.00;85.10;;;;;;7386970;19;20631;-76
2023/07/22 09:24:27;;;;;;;1.30;0.88;;;25.00;86.80;;;;;;7387726;19;20552;-75
2023/07/22 09:26:54;;;;;;;1.50;1.10;;;25.00;86.80;;;;;;7386004;19;20154;-76
2023/07/22 09:29:33;;;;;;;1.40;1.10;;;25.20;87.40;;;;;;7388972;19;20615;-74
2023/07/22 09:31:59;;;;;;;1.40;1.10;;;25.20;87.70;;;;;;7388700;19;20212;-75
2023/07/22 09:34:25;;;;;;;1.25;1.08;;;25.10;86.80;;;;;;7386069;19;20596;-76
2023/07/22 09:37:03;;;;;;;1.50;0.90;;;25.20;87.50;;;;;;7386827;19;20131;-75
2023/07/22 09:39:29;;;;;;;1.13;1.00;;;25.20;88.40;;;;;;7387761;19;20201;-75
2023/07/22 09:41:56;;;;;;;2.03;1.20;;;25.30;89.40;;;;;;7388667;19;20139;-76
2023/07/22 09:44:31;;;;;;;1.67;1.23;;;25.70;89.70;;;;;;7387984;19;20150;-76
2023/07/22 09:46:56;;;;;;;1.80;1.00;;;25.70;87.80;;;;;;7382999;19;20784;-76
2023/07/22 09:49:22;;;;;;;1.98;1.23;;;26.00;85.90;;;;;;7386877;19;20134;-75
2023/07/22 09:51:51;;;;;;;3.38;0.80;;;25.90;85.40;;;;;;7386489;19;20446;-76
2023/07/22 09:54:18;;;;;;;0.95;0.90;;;26.00;86.00;;;;;;7384280;19;20134;-75
2023/07/22 09:56:46;;;;;;;1.02;0.93;;;26.00;85.90;;;;;;7384666;19;20667;-76
2023/07/22 09:59:13;;;;;;;1.40;1.00;;;26.00;87.40;;;;;;7388028;19;20151;-75
2023/07/22 10:01:39;;;;;;;1.33;1.05;;;26.00;87.70;;;;;;7387133;19;20139;-75
2023/07/22 10:04:06;;;;;;;1.27;1.10;;;26.30;87.40;;;;;;7385208;19;20149;-75
2023/07/22 10:06:33;;;;;;;1.25;1.05;;;26.50;85.60;;;;;;7384989;19;20167;-75
2023/07/22 10:09:07;;;;;;;2.35;1.20;;;26.70;85.50;;;;;;7381758;19;20135;-75
2023/07/22 10:11:34;;;;;;;2.10;1.58;;;26.70;83.60;;;;;;7386863;19;20142;-75
2023/07/22 10:14:04;;;;;;;1.65;1.13;;;26.70;82.60;;;;;;7387128;19;20149;-74
2023/07/22 10:16:30;;;;;;;3.42;2.40;;;26.60;82.40;;;;;;7386411;19;20591;-75
2023/07/22 10:18:57;;;;;;;2.97;1.40;;;26.40;83.60;;;;;;7388520;19;20141;-75
2023/07/22 10:21:25;;;;;;;10.00;7.45;;;26.20;82.80;;;;;;7386282;19;20137;-77
2023/07/22 10:23:51;;;;;;;4.43;3.30;;;26.10;82.10;;;;;;7387530;19;20146;-75
2023/07/22 10:26:18;;;;;;;1.67;1.58;;;26.00;82.30;;;;;;7385133;19;20142;-75
2023/07/22 10:28:45;;;;;;;1.58;1.30;;;26.00;82.20;;;;;;7384210;19;20857;-76
2023/07/22 10:31:12;;;;;;;1.52;1.00;;;25.90;82.60;;;;;;7384533;19;20127;-75
2023/07/22 10:33:38;;;;;;;1.25;1.00;;;25.40;82.80;;;;;;7384264;19;20154;-75
2023/07/22 10:36:09;;;;;;;1.15;0.90;;;25.40;83.70;;;;;;7383584;19;20139;-75
2023/07/22 10:38:35;;;;;;;1.45;1.13;;;25.30;82.90;;;;;;7385654;19;20139;-75
2023/07/22 10:41:12;;;;;;;1.52;1.20;;;25.60;83.20;;;;;;7386047;19;20206;-75
2023/07/22 10:43:37;;;;;;;2.05;1.65;;;26.00;83.30;;;;;;7383036;19;20614;-75
2023/07/22 10:46:10;;;;;;;2.30;1.00;;;26.30;83.50;;;;;;7384614;19;20163;-75
2023/07/22 10:48:37;;;;;;;1.30;1.20;;;26.50;81.00;;;;;;7380922;19;20607;-76
2023/07/22 10:51:15;;;;;;;2.53;1.52;;;26.40;81.60;;;;;;7386388;19;20143;-76
2023/07/22 10:53:43;;;;;;;5.10;2.63;;;26.40;82.40;;;;;;7381667;19;20135;-76
2023/07/22 10:56:09;;;;;;;1.70;1.27;;;26.40;82.30;;;;;;7386811;19;20149;-76
2023/07/22 10:58:47;;;;;;;1.88;1.05;;;26.30;80.90;;;;;;7383679;19;20591;-75
2023/07/22 11:01:30;;;;;;;1.92;1.30;;;26.10;82.40;;;;;;7386469;19;20190;-76
2023/07/22 11:04:31;;;;;;;1.73;1.40;;;26.40;82.60;;;;;;7383182;19;20218;-76
2023/07/22 11:06:58;;;;;;;3.33;2.10;;;26.70;82.20;;;;;;7385837;19;20150;-76
2023/07/22 11:09:27;;;;;;;3.35;2.47;;;26.80;81.70;;;;;;7389827;19;20170;-76
2023/07/22 11:12:00;;;;;;;1.90;1.08;;;26.90;81.80;;;;;;7389355;19;20131;-76
2023/07/22 11:14:28;;;;;;;2.55;1.30;;;26.80;81.40;;;;;;7391493;19;20595;-75
2023/07/22 11:16:56;;;;;;;1.55;1.13;;;26.50;79.90;;;;;;7391752;19;20169;-75
2023/07/22 11:19:23;;;;;;;2.55;1.15;;;26.40;80.50;;;;;;7388711;19;20141;-76
2023/07/22 11:21:51;;;;;;;1.42;1.13;;;26.30;81.40;;;;;;7392207;19;20474;-75
2023/07/22 11:24:17;;;;;;;1.50;1.10;;;26.00;82.50;;;;;;7390415;19;20149;-75
2023/07/22 11:26:45;;;;;;;2.28;1.33;;;25.90;82.60;;;;;;7391613;19;20165;-75
2023/07/22 11:29:12;;;;;;;2.10;1.00;;;25.70;83.70;;;;;;7389653;19;20209;-75
2023/07/22 11:31:42;;;;;;;2.38;1.17;;;25.70;85.10;;;;;;7389084;19;20179;-74
2023/07/22 11:34:09;;;;;;;1.58;1.10;;;25.70;85.00;;;;;;7391084;19;20210;-74
2023/07/22 11:36:37;;;;;;;3.67;1.00;;;25.70;84.70;;;;;;7388977;19;20218;-74
2023/07/22 11:39:08;;;;;;;2.13;1.10;;;25.70;85.70;;;;;;7390203;19;20772;-75
2023/07/22 11:41:35;;;;;;;1.83;1.40;;;26.10;85.60;;;;;;7391047;19;20142;-75
2023/07/22 11:44:08;;;;;;;1.60;1.10;;;25.90;85.70;;;;;;7390104;19;20160;-74
2023/07/22 11:46:46;;;;;;;1.75;1.25;;;26.20;85.30;;;;;;7388764;19;20220;-74
2023/07/22 11:49:12;;;;;;;1.30;1.15;;;26.30;84.70;;;;;;7390396;19;20477;-74
2023/07/22 11:51:42;;;;;;;1.45;1.25;;;26.20;86.10;;;;;;7391262;19;20135;-74
2023/07/22 11:54:08;;;;;;;1.45;1.15;;;26.20;85.50;;;;;;7389601;19;20146;-74
2023/07/22 11:56:34;;;;;;;1.38;1.10;;;26.30;85.00;;;;;;7390631;19;20142;-74
2023/07/22 11:58:59;;;;;;;1.58;1.30;;;26.40;85.30;;;;;;7388548;19;20138;-74
2023/07/22 12:01:33;;;;;;;1.60;1.27;;;26.40;85.40;;;;;;7390058;19;20314;-74
